createdAt,value
2023-01-19T00:02:19.040Z,-1.45
2023-01-19T00:05:21.196Z,-1.45
2023-01-19T00:08:23.095Z,-1.45
2023-01-19T00:11:11.592Z,-1.45
2023-01-19T00:14:20.085Z,-1.47
2023-01-19T00:17:28.739Z,-1.47
2023-01-19T00:20:37.049Z,-1.48
2023-01-19T00:23:45.854Z,-1.50
2023-01-19T00:26:55.320Z,-1.52
2023-01-19T00:30:04.291Z,-1.54
2023-01-19T00:33:13.283Z,-1.55
2023-01-19T00:36:22.306Z,-1.55
2023-01-19T00:39:13.948Z,-1.55
2023-01-19T00:42:22.973Z,-1.54
2023-01-19T00:45:32.876Z,-1.53
2023-01-19T00:48:42.134Z,-1.52
2023-01-19T00:51:33.500Z,-1.52
2023-01-19T00:54:41.773Z,-1.52
2023-01-19T00:57:50.925Z,-1.51
2023-01-19T01:01:02.905Z,-1.44
2023-01-19T01:04:12.509Z,-1.39
2023-01-19T01:07:21.008Z,-1.34
2023-01-19T01:10:36.052Z,-1.31
2023-01-19T01:13:44.295Z,-1.26
2023-01-19T01:16:53.843Z,-1.19
2023-01-19T01:20:02.521Z,-1.16
2023-01-19T01:23:11.332Z,-1.10
2023-01-19T01:26:19.570Z,-1.07
2023-01-19T01:29:17.869Z,-1.09
2023-01-19T01:32:18.924Z,-1.03
2023-01-19T01:35:28.338Z,-0.97
2023-01-19T01:38:37.069Z,-0.93
2023-01-19T01:41:38.517Z,-0.85
2023-01-19T01:44:44.450Z,-0.76
2023-01-19T01:48:03.101Z,-0.68
2023-01-19T01:51:08.864Z,-0.66
2023-01-19T01:54:27.429Z,-0.70
2023-01-19T01:57:36.526Z,-0.71
2023-01-19T02:00:33.728Z,-0.65
2023-01-19T02:03:35.194Z,-0.67
2023-01-19T02:06:43.842Z,-0.72
2023-01-19T02:09:44.847Z,-0.77
2023-01-19T02:12:52.272Z,-0.83
2023-01-19T02:16:00.530Z,-0.85
2023-01-19T02:19:03.620Z,-0.88
2023-01-19T02:22:10.334Z,-0.91
2023-01-19T02:25:19.178Z,-0.95
2023-01-19T02:28:27.887Z,-0.97
2023-01-19T02:31:36.300Z,-1.00
2023-01-19T02:34:45.486Z,-1.03
2023-01-19T02:37:54.703Z,-1.06
2023-01-19T02:41:03.052Z,-1.06
2023-01-19T02:44:10.245Z,-1.02
2023-01-19T02:47:19.006Z,-0.97
2023-01-19T02:50:49.450Z,-0.93
2023-01-19T02:54:02.356Z,-0.90
2023-01-19T02:57:08.852Z,-0.86
2023-01-19T03:00:23.050Z,-0.84
2023-01-19T03:03:24.761Z,-0.83
2023-01-19T03:06:42.301Z,-0.84
2023-01-19T03:10:09.182Z,-0.84
2023-01-19T03:13:17.633Z,-0.83
2023-01-19T03:16:25.775Z,-0.83
2023-01-19T03:19:43.136Z,-0.81
2023-01-19T03:22:51.434Z,-0.75
2023-01-19T03:26:00.372Z,-0.71
2023-01-19T03:29:09.385Z,-0.69
2023-01-19T03:32:11.962Z,-0.76
2023-01-19T03:35:20.811Z,-0.76
2023-01-19T03:38:29.166Z,-0.70
2023-01-19T03:41:41.172Z,-0.64
2023-01-19T03:44:50.717Z,-0.56
2023-01-19T03:47:52.182Z,-0.48
2023-01-19T03:51:00.480Z,-0.53
2023-01-19T03:54:09.532Z,-0.59
2023-01-19T03:57:17.848Z,-0.64
2023-01-19T04:00:26.516Z,-0.66
2023-01-19T04:03:34.682Z,-0.65
2023-01-19T04:06:29.315Z,-0.64
2023-01-19T04:09:37.488Z,-0.61
2023-01-19T04:12:36.356Z,-0.61
2023-01-19T04:15:44.945Z,-0.60
2023-01-19T04:18:54.503Z,-0.62
2023-01-19T04:21:54.999Z,-0.60
2023-01-19T04:24:49.234Z,-0.61
2023-01-19T04:27:58.384Z,-0.65
2023-01-19T04:31:07.298Z,-0.67
2023-01-19T04:34:15.951Z,-0.66
2023-01-19T04:37:24.733Z,-0.64
2023-01-19T04:40:33.086Z,-0.61
2023-01-19T04:43:41.243Z,-0.60
2023-01-19T04:46:49.409Z,-0.65
2023-01-19T04:49:45.324Z,-0.68
2023-01-19T04:52:53.620Z,-0.68
2023-01-19T04:56:02.498Z,-0.69
2023-01-19T04:59:11.731Z,-0.68
2023-01-19T05:02:20.461Z,-0.66
2023-01-19T05:05:27.322Z,-0.62
2023-01-19T05:08:36.370Z,-0.63
2023-01-19T05:11:45.019Z,-0.64
2023-01-19T05:14:53.580Z,-0.63
2023-01-19T05:18:03.201Z,-0.60
2023-01-19T05:21:10.206Z,-0.61
2023-01-19T05:24:18.545Z,-0.62
2023-01-19T05:27:17.139Z,-0.67
2023-01-19T05:30:26.186Z,-0.70
2023-01-19T05:33:35.197Z,-0.74
2023-01-19T05:36:43.631Z,-0.74
2023-01-19T05:39:53.265Z,-0.73
2023-01-19T05:43:02.161Z,-0.71
2023-01-19T05:46:11.078Z,-0.69
2023-01-19T05:49:19.352Z,-0.67
2023-01-19T05:52:30.299Z,-0.63
2023-01-19T05:55:38.573Z,-0.58
2023-01-19T05:58:47.950Z,-0.50
2023-01-19T06:01:57.335Z,-0.47
2023-01-19T06:04:55.984Z,-0.42
2023-01-19T06:08:04.519Z,-0.39
2023-01-19T06:11:13.918Z,-0.37
2023-01-19T06:14:22.811Z,-0.39
2023-01-19T06:17:31.484Z,-0.40
2023-01-19T06:20:40.546Z,-0.44
2023-01-19T06:23:49.858Z,-0.48
2023-01-19T06:26:59.142Z,-0.50
2023-01-19T06:29:58.578Z,-0.52
2023-01-19T06:33:07.400Z,-0.52
2023-01-19T06:36:16.316Z,-0.47
2023-01-19T06:39:25.367Z,-0.46
2023-01-19T06:42:33.537Z,-0.47
2023-01-19T06:45:43.741Z,-0.50
2023-01-19T06:48:35.858Z,-0.47
2023-01-19T06:51:44.459Z,-0.42
2023-01-19T06:54:54.067Z,-0.35
2023-01-19T06:58:05.061Z,-0.30
2023-01-19T07:01:14.175Z,-0.27
2023-01-19T07:04:23.051Z,-0.26
2023-01-19T07:07:32.210Z,-0.24
2023-01-19T07:11:25.749Z,-0.21
2023-01-19T07:14:08.779Z,-0.20
2023-01-19T07:17:17.065Z,-0.19
2023-01-19T07:20:26.036Z,-0.15
2023-01-19T07:23:35.646Z,-0.07
2023-01-19T07:26:43.818Z,0.02
2023-01-19T07:29:52.425Z,0.06
2023-01-19T07:33:01.224Z,0.01
2023-01-19T07:36:09.704Z,-0.06
2023-01-19T07:39:21.882Z,-0.10
2023-01-19T07:42:30.923Z,-0.11
2023-01-19T07:45:39.549Z,-0.10
2023-01-19T07:48:49.685Z,-0.12
2023-01-19T07:51:59.059Z,-0.14
2023-01-19T07:55:08.193Z,-0.13
2023-01-19T07:58:16.874Z,-0.11
2023-01-19T08:01:25.745Z,-0.07
2023-01-19T08:04:34.630Z,-0.05
2023-01-19T08:07:43.986Z,0.01
2023-01-19T08:10:53.616Z,0.10
2023-01-19T08:14:01.834Z,0.12
2023-01-19T08:17:09.991Z,0.15
2023-01-19T08:20:19.245Z,0.21
2023-01-19T08:23:27.378Z,0.29
2023-01-19T08:26:39.563Z,0.34
2023-01-19T08:29:48.466Z,0.38
2023-01-19T08:32:57.580Z,0.45
2023-01-19T08:35:59.668Z,0.53
2023-01-19T08:39:00.666Z,0.51
2023-01-19T08:42:09.814Z,0.51
2023-01-19T08:45:18.243Z,0.52
2023-01-19T08:48:27.252Z,0.58
2023-01-19T08:51:35.711Z,0.65
2023-01-19T08:54:44.743Z,0.76
2023-01-19T08:57:53.660Z,0.87
2023-01-19T09:00:59.773Z,0.94
2023-01-19T09:04:08.245Z,0.98
2023-01-19T09:07:17.397Z,1.11
2023-01-19T09:10:26.476Z,1.28
2023-01-19T09:13:35.487Z,1.36
2023-01-19T09:16:04.468Z,1.31
2023-01-19T09:18:56.313Z,1.27
2023-01-19T09:22:05.292Z,1.24
2023-01-19T09:24:56.882Z,1.25
2023-01-19T09:28:05.553Z,1.28
2023-01-19T09:31:15.042Z,1.37
2023-01-19T09:34:23.670Z,1.33
2023-01-19T09:37:32.981Z,1.32
2023-01-19T09:40:34.212Z,1.31
2023-01-19T09:43:22.631Z,1.27
2023-01-19T09:46:37.634Z,1.24
2023-01-19T09:49:54.883Z,1.22
2023-01-19T09:53:03.183Z,1.16
2023-01-19T09:55:58.027Z,1.04
2023-01-19T09:58:41.010Z,0.96
2023-01-19T10:01:53.451Z,0.92
2023-01-19T10:05:05.174Z,0.85
2023-01-19T10:08:35.738Z,0.74
2023-01-19T10:11:53.107Z,0.65
2023-01-19T10:15:06.209Z,0.58
2023-01-19T10:18:30.519Z,0.47
2023-01-19T10:21:42.560Z,0.44
2023-01-19T10:24:58.196Z,0.42
2023-01-19T10:28:00.680Z,0.42
2023-01-19T10:30:53.144Z,0.40
2023-01-19T10:34:01.667Z,0.40
2023-01-19T10:37:14.840Z,0.39
2023-01-19T10:40:31.935Z,0.38
2023-01-19T10:43:56.644Z,0.41
2023-01-19T10:47:25.669Z,0.40
2023-01-19T10:50:18.682Z,0.38
2023-01-19T10:53:27.327Z,0.36
2023-01-19T10:56:54.730Z,0.34
2023-01-19T11:00:04.749Z,0.36
2023-01-19T11:03:13.959Z,0.39
2023-01-19T11:06:35.365Z,0.41
2023-01-19T11:09:50.463Z,0.41
2023-01-19T11:12:57.598Z,0.40
2023-01-19T11:16:13.242Z,0.40
2023-01-19T11:19:21.519Z,0.40
2023-01-19T11:22:36.091Z,0.41
2023-01-19T11:25:45.837Z,0.40
2023-01-19T11:28:58.743Z,0.41
2023-01-19T11:32:08.046Z,0.40
2023-01-19T11:35:16.238Z,0.41
2023-01-19T11:38:25.745Z,0.40
2023-01-19T11:41:46.655Z,0.42
2023-01-19T11:45:07.383Z,0.40
2023-01-19T11:48:24.868Z,0.41
2023-01-19T11:51:35.948Z,0.40
2023-01-19T11:54:42.367Z,0.39
2023-01-19T11:57:31.586Z,0.35
2023-01-19T12:00:43.098Z,0.33
2023-01-19T12:03:57.731Z,0.32
2023-01-19T12:07:07.824Z,0.27
2023-01-19T12:10:17.474Z,0.24
2023-01-19T12:13:25.373Z,0.24
2023-01-19T12:16:39.957Z,0.26
2023-01-19T12:19:54.587Z,0.24
2023-01-19T12:23:04.252Z,0.22
2023-01-19T12:26:01.772Z,0.21
2023-01-19T12:28:57.554Z,0.20
2023-01-19T12:32:05.738Z,0.19
2023-01-19T12:35:20.433Z,0.19
2023-01-19T12:38:27.906Z,0.17
2023-01-19T12:41:55.910Z,0.13
2023-01-19T12:44:58.752Z,0.11
2023-01-19T12:47:56.483Z,0.06
2023-01-19T12:50:56.938Z,0.05
2023-01-19T12:54:06.021Z,0.04
2023-01-19T12:57:15.098Z,0.03
2023-01-19T13:00:42.285Z,0.01
2023-01-19T13:04:02.560Z,0.03
2023-01-19T13:07:29.201Z,0.04
2023-01-19T13:10:36.600Z,0.01
2023-01-19T13:13:57.245Z,-0.04
2023-01-19T13:17:02.251Z,-0.05
2023-01-19T13:20:25.699Z,-0.05
2023-01-19T13:23:40.387Z,-0.05
2023-01-19T13:26:53.008Z,-0.05
2023-01-19T13:30:12.393Z,-0.06
2023-01-19T13:33:22.384Z,-0.06
2023-01-19T13:36:41.180Z,-0.06
2023-01-19T13:39:56.488Z,-0.08
2023-01-19T13:43:04.969Z,-0.09
2023-01-19T13:46:16.806Z,-0.11
2023-01-19T13:49:47.087Z,-0.11
2023-01-19T13:52:56.161Z,-0.14
2023-01-19T13:56:08.269Z,-0.18
2023-01-19T13:59:19.710Z,-0.20
2023-01-19T14:02:28.401Z,-0.22
2023-01-19T14:05:37.427Z,-0.23
2023-01-19T14:08:48.802Z,-0.23
2023-01-19T14:11:42.816Z,-0.24
2023-01-19T14:15:04.372Z,-0.23
2023-01-19T14:18:10.581Z,-0.23
2023-01-19T14:21:26.057Z,-0.23
2023-01-19T14:24:41.789Z,-0.24
2023-01-19T14:27:51.023Z,-0.25
2023-01-19T14:30:44.133Z,-0.25
2023-01-19T14:33:56.388Z,-0.25
2023-01-19T14:37:14.541Z,-0.25
2023-01-19T14:40:28.913Z,-0.25
2023-01-19T14:43:30.579Z,-0.26
2023-01-19T14:46:39.720Z,-0.28
2023-01-19T14:49:49.839Z,-0.30
2023-01-19T14:53:10.967Z,-0.32
2023-01-19T14:56:19.673Z,-0.37
2023-01-19T14:59:12.264Z,-0.39
2023-01-19T15:02:20.539Z,-0.40
2023-01-19T15:05:29.644Z,-0.42
2023-01-19T15:08:38.312Z,-0.42
2023-01-19T15:11:12.862Z,-0.43
2023-01-19T15:14:02.879Z,-0.43
2023-01-19T15:16:52.978Z,-0.44
2023-01-19T15:20:01.960Z,-0.44
2023-01-19T15:23:10.432Z,-0.45
2023-01-19T15:26:18.681Z,-0.46
2023-01-19T15:29:39.089Z,-0.47
2023-01-19T15:32:50.692Z,-0.49
2023-01-19T15:35:59.386Z,-0.50
2023-01-19T15:38:49.875Z,-0.51
2023-01-19T15:42:04.326Z,-0.54
2023-01-19T15:45:14.118Z,-0.55
2023-01-19T15:48:22.294Z,-0.56
2023-01-19T15:51:34.121Z,-0.58
2023-01-19T15:54:42.423Z,-0.58
2023-01-19T15:57:44.258Z,-0.57
2023-01-19T16:00:52.594Z,-0.57
2023-01-19T16:03:59.655Z,-0.54
2023-01-19T16:07:07.949Z,-0.55
2023-01-19T16:10:14.162Z,-0.55
2023-01-19T16:13:23.009Z,-0.55
2023-01-19T16:16:12.900Z,-0.55
2023-01-19T16:19:22.205Z,-0.55
2023-01-19T16:22:31.043Z,-0.54
2023-01-19T16:25:40.816Z,-0.54
2023-01-19T16:28:49.840Z,-0.53
2023-01-19T16:32:00.584Z,-0.55
2023-01-19T16:35:09.428Z,-0.55
2023-01-19T16:38:18.326Z,-0.57
2023-01-19T16:41:26.575Z,-0.58
2023-01-19T16:44:36.386Z,-0.60
2023-01-19T16:47:45.936Z,-0.61
2023-01-19T16:50:54.160Z,-0.62
2023-01-19T16:53:55.796Z,-0.63
2023-01-19T16:57:04.703Z,-0.63
2023-01-19T16:59:53.020Z,-0.62
2023-01-19T17:03:02.503Z,-0.61
2023-01-19T17:06:10.743Z,-0.61
2023-01-19T17:09:19.406Z,-0.62
2023-01-19T17:12:15.125Z,-0.62
2023-01-19T17:15:03.793Z,-0.62
2023-01-19T17:17:55.343Z,-0.63
2023-01-19T17:21:03.726Z,-0.63
2023-01-19T17:24:13.203Z,-0.64
2023-01-19T17:27:22.779Z,-0.65
2023-01-19T17:30:31.872Z,-0.65
2023-01-19T17:33:41.603Z,-0.64
2023-01-19T17:36:52.101Z,-0.64
2023-01-19T17:40:00.754Z,-0.63
2023-01-19T17:43:09.788Z,-0.63
2023-01-19T17:46:18.805Z,-0.61
2023-01-19T17:49:27.090Z,-0.60
2023-01-19T17:52:20.154Z,-0.60
2023-01-19T17:55:28.891Z,-0.61
2023-01-19T17:58:29.447Z,-0.61
2023-01-19T18:01:34.092Z,-0.62
2023-01-19T18:04:37.000Z,-0.61
2023-01-19T18:07:25.095Z,-0.60
2023-01-19T18:10:35.760Z,-0.62
2023-01-19T18:13:45.111Z,-0.62
2023-01-19T18:16:47.216Z,-0.62
2023-01-19T18:19:56.800Z,-0.61
2023-01-19T18:23:05.114Z,-0.61
2023-01-19T18:26:19.910Z,-0.62
2023-01-19T18:29:09.023Z,-0.62
2023-01-19T18:32:18.058Z,-0.62
2023-01-19T18:35:27.412Z,-0.60
2023-01-19T18:38:35.550Z,-0.62
2023-01-19T18:41:44.192Z,-0.61
2023-01-19T18:44:53.879Z,-0.61
2023-01-19T18:47:55.652Z,-0.62
2023-01-19T18:51:03.958Z,-0.62
2023-01-19T18:54:06.995Z,-0.62
2023-01-19T18:57:08.858Z,-0.63
2023-01-19T19:00:17.597Z,-0.64
2023-01-19T19:03:26.968Z,-0.64
2023-01-19T19:06:29.981Z,-0.64
2023-01-19T19:09:38.149Z,-0.64
2023-01-19T19:12:47.031Z,-0.65
2023-01-19T19:15:58.455Z,-0.68
2023-01-19T19:19:07.573Z,-0.69
2023-01-19T19:22:17.145Z,-0.71
2023-01-19T19:25:26.022Z,-0.74
2023-01-19T19:28:04.083Z,-0.74
2023-01-19T19:31:12.698Z,-0.74
2023-01-19T19:34:21.885Z,-0.73
2023-01-19T19:37:30.928Z,-0.72
2023-01-19T19:40:40.514Z,-0.72
2023-01-19T19:43:48.733Z,-0.73
2023-01-19T19:46:58.066Z,-0.73
2023-01-19T19:50:06.540Z,-0.75
2023-01-19T19:53:15.052Z,-0.76
2023-01-19T19:56:23.722Z,-0.76
2023-01-19T19:59:33.253Z,-0.76
2023-01-19T20:02:41.819Z,-0.77
2023-01-19T20:05:50.997Z,-0.77
2023-01-19T20:09:00.078Z,-0.78
2023-01-19T20:12:11.285Z,-0.80
2023-01-19T20:15:20.562Z,-0.80
2023-01-19T20:18:29.888Z,-0.82
2023-01-19T20:21:44.484Z,-0.83
2023-01-19T20:24:56.802Z,-0.84
2023-01-19T20:28:06.494Z,-0.86
2023-01-19T20:31:15.694Z,-0.86
2023-01-19T20:34:15.044Z,-0.86
2023-01-19T20:37:24.427Z,-0.87
2023-01-19T20:40:33.281Z,-0.88
2023-01-19T20:43:21.849Z,-0.89
2023-01-19T20:46:30.137Z,-0.90
2023-01-19T20:49:30.203Z,-0.89
2023-01-19T20:52:39.567Z,-0.90
2023-01-19T20:55:48.991Z,-0.90
2023-01-19T20:58:46.231Z,-0.90
2023-01-19T21:01:38.980Z,-0.91
2023-01-19T21:04:32.954Z,-0.90
2023-01-19T21:07:41.675Z,-0.90
2023-01-19T21:10:50.594Z,-0.90
2023-01-19T21:13:59.026Z,-0.90
2023-01-19T21:17:07.587Z,-0.89
2023-01-19T21:20:16.584Z,-0.89
2023-01-19T21:23:25.582Z,-0.88
2023-01-19T21:26:33.960Z,-0.87
2023-01-19T21:29:43.912Z,-0.87
2023-01-19T21:32:53.279Z,-0.87
2023-01-19T21:36:01.757Z,-0.88
2023-01-19T21:39:10.300Z,-0.88
2023-01-19T21:42:19.640Z,-0.88
2023-01-19T21:45:28.183Z,-0.88
2023-01-19T21:48:37.485Z,-0.89
2023-01-19T21:51:39.146Z,-0.88
2023-01-19T21:54:48.559Z,-0.88
2023-01-19T21:57:57.489Z,-0.87
2023-01-19T22:01:07.549Z,-0.87
2023-01-19T22:04:15.892Z,-0.86
2023-01-19T22:07:25.532Z,-0.85
2023-01-19T22:10:34.696Z,-0.85
2023-01-19T22:13:36.560Z,-0.84
2023-01-19T22:16:46.061Z,-0.82
2023-01-19T22:19:43.933Z,-0.82
2023-01-19T22:22:50.693Z,-0.82
2023-01-19T22:25:32.455Z,-0.81
2023-01-19T22:28:40.641Z,-0.81
2023-01-19T22:31:53.019Z,-0.80
2023-01-19T22:34:48.446Z,-0.79
2023-01-19T22:37:57.511Z,-0.78
2023-01-19T22:41:06.649Z,-0.77
2023-01-19T22:44:15.129Z,-0.78
2023-01-19T22:47:05.959Z,-0.77
2023-01-19T22:50:15.154Z,-0.77
2023-01-19T22:53:23.745Z,-0.77
2023-01-19T22:56:38.520Z,-0.77
2023-01-19T22:59:47.276Z,-0.75
2023-01-19T23:02:56.571Z,-0.76
2023-01-19T23:05:56.451Z,-0.75
2023-01-19T23:08:57.368Z,-0.75
2023-01-19T23:12:08.738Z,-0.75
2023-01-19T23:15:10.267Z,-0.76
2023-01-19T23:18:19.991Z,-0.80
2023-01-19T23:21:28.405Z,-0.83
2023-01-19T23:24:30.781Z,-0.90
2023-01-19T23:27:38.941Z,-0.95
2023-01-19T23:30:29.519Z,-0.98
2023-01-19T23:33:29.956Z,-1.02
2023-01-19T23:36:39.398Z,-1.06
2023-01-19T23:39:46.856Z,-1.09
2023-01-19T23:42:56.044Z,-1.10
2023-01-19T23:46:05.583Z,-1.11
2023-01-19T23:49:03.816Z,-1.12
2023-01-19T23:52:11.997Z,-1.12
2023-01-19T23:55:20.250Z,-1.14
2023-01-19T23:58:28.726Z,-1.14
